sensor_id;sensor_type;location;lat;lon;timestamp;temperature;humidity
26907;DHT22;14472;56.880;16.658;2023-06-22T00:02:21;20.60;99.90
26907;DHT22;14472;56.880;16.658;2023-06-22T00:04:47;20.60;99.90
26907;DHT22;14472;56.880;16.658;2023-06-22T00:07:13;20.60;99.90
26907;DHT22;14472;56.880;16.658;2023-06-22T00:09:38;20.60;99.90
26907;DHT22;14472;56.880;16.658;2023-06-22T00:12:04;20.60;99.90
26907;DHT22;14472;56.880;16.658;2023-06-22T00:14:30;20.50;99.90
26907;DHT22;14472;56.880;16.658;2023-06-22T00:16:56;20.50;99.90
26907;DHT22;14472;56.880;16.658;2023-06-22T00:19:24;20.50;99.90
26907;DHT22;14472;56.880;16.658;2023-06-22T00:21:50;20.40;99.90
26907;DHT22;14472;56.880;16.658;2023-06-22T00:24:20;20.40;99.90
26907;DHT22;14472;56.880;16.658;2023-06-22T00:26:46;20.40;99.90
26907;DHT22;14472;56.880;16.658;2023-06-22T00:29:12;20.40;99.90
26907;DHT22;14472;56.880;16.658;2023-06-22T00:31:38;20.40;99.90
26907;DHT22;14472;56.880;16.658;2023-06-22T00:34:04;20.30;99.90
26907;DHT22;14472;56.880;16.658;2023-06-22T00:36:32;20.30;99.90
26907;DHT22;14472;56.880;16.658;2023-06-22T00:38:58;20.30;99.90
26907;DHT22;14472;56.880;16.658;2023-06-22T00:41:23;20.30;99.90
26907;DHT22;14472;56.880;16.658;2023-06-22T00:43:49;20.20;99.90
26907;DHT22;14472;56.880;16.658;2023-06-22T00:46:15;20.20;99.90
26907;DHT22;14472;56.880;16.658;2023-06-22T00:48:41;20.20;99.90
26907;DHT22;14472;56.880;16.658;2023-06-22T00:51:10;20.20;99.90
26907;DHT22;14472;56.880;16.658;2023-06-22T00:53:36;20.20;99.90
26907;DHT22;14472;56.880;16.658;2023-06-22T00:56:04;20.20;99.90
26907;DHT22;14472;56.880;16.658;2023-06-22T00:58:31;20.10;99.90
26907;DHT22;14472;56.880;16.658;2023-06-22T01:00:57;20.10;99.90
26907;DHT22;14472;56.880;16.658;2023-06-22T01:03:23;20.10;99.90
26907;DHT22;14472;56.880;16.658;2023-06-22T01:05:50;20.10;99.90
26907;DHT22;14472;56.880;16.658;2023-06-22T01:08:34;20.10;99.90
26907;DHT22;14472;56.880;16.658;2023-06-22T01:11:20;20.00;99.90
26907;DHT22;14472;56.880;16.658;2023-06-22T01:13:54;20.00;99.90
26907;DHT22;14472;56.880;16.658;2023-06-22T01:16:24;20.00;99.90
26907;DHT22;14472;56.880;16.658;2023-06-22T01:18:53;20.00;99.90
26907;DHT22;14472;56.880;16.658;2023-06-22T01:21:21;20.00;99.90
26907;DHT22;14472;56.880;16.658;2023-06-22T01:24:24;20.00;99.90
26907;DHT22;14472;56.880;16.658;2023-06-22T01:27:23;20.00;99.90
26907;DHT22;14472;56.880;16.658;2023-06-22T01:29:56;19.90;99.90
26907;DHT22;14472;56.880;16.658;2023-06-22T01:32:30;19.90;99.90
26907;DHT22;14472;56.880;16.658;2023-06-22T01:34:58;19.90;99.90
26907;DHT22;14472;56.880;16.658;2023-06-22T01:37:27;19.90;99.90
26907;DHT22;14472;56.880;16.658;2023-06-22T01:39:54;19.90;99.90
26907;DHT22;14472;56.880;16.658;2023-06-22T01:42:21;19.80;99.90
26907;DHT22;14472;56.880;16.658;2023-06-22T01:44:47;19.80;99.90
26907;DHT22;14472;56.880;16.658;2023-06-22T01:47:13;19.80;99.90
26907;DHT22;14472;56.880;16.658;2023-06-22T01:49:40;19.70;99.90
26907;DHT22;14472;56.880;16.658;2023-06-22T01:52:07;19.60;99.90
26907;DHT22;14472;56.880;16.658;2023-06-22T01:54:33;19.60;99.90
26907;DHT22;14472;56.880;16.658;2023-06-22T01:56:59;19.50;99.90
26907;DHT22;14472;56.880;16.658;2023-06-22T01:59:32;19.50;99.90
26907;DHT22;14472;56.880;16.658;2023-06-22T02:02:04;19.40;99.90
26907;DHT22;14472;56.880;16.658;2023-06-22T02:04:48;19.40;99.90
26907;DHT22;14472;56.880;16.658;2023-06-22T02:07:20;19.40;99.90
26907;DHT22;14472;56.880;16.658;2023-06-22T02:09:49;19.40;99.90
26907;DHT22;14472;56.880;16.658;2023-06-22T02:12:18;19.40;99.90
26907;DHT22;14472;56.880;16.658;2023-06-22T02:14:45;19.40;99.90
26907;DHT22;14472;56.880;16.658;2023-06-22T02:17:12;19.30;99.90
26907;DHT22;14472;56.880;16.658;2023-06-22T02:19:40;19.30;99.90
26907;DHT22;14472;56.880;16.658;2023-06-22T02:22:06;19.30;99.90
26907;DHT22;14472;56.880;16.658;2023-06-22T02:24:32;19.40;99.90
26907;DHT22;14472;56.880;16.658;2023-06-22T02:27:00;19.30;99.90
26907;DHT22;14472;56.880;16.658;2023-06-22T02:29:26;19.30;99.90
26907;DHT22;14472;56.880;16.658;2023-06-22T02:31:55;19.30;93.60
26907;DHT22;14472;56.880;16.658;2023-06-22T02:34:21;19.20;93.60
26907;DHT22;14472;56.880;16.658;2023-06-22T02:36:48;19.20;82.30
26907;DHT22;14472;56.880;16.658;2023-06-22T02:39:21;19.20;73.00
26907;DHT22;14472;56.880;16.658;2023-06-22T02:41:49;19.10;70.20
26907;DHT22;14472;56.880;16.658;2023-06-22T02:44:15;19.10;74.30
26907;DHT22;14472;56.880;16.658;2023-06-22T02:46:41;19.20;73.00
26907;DHT22;14472;56.880;16.658;2023-06-22T02:49:06;19.20;69.40
26907;DHT22;14472;56.880;16.658;2023-06-22T02:51:33;19.10;60.50
26907;DHT22;14472;56.880;16.658;2023-06-22T02:54:02;19.10;56.70
26907;DHT22;14472;56.880;16.658;2023-06-22T02:56:28;19.00;57.70
26907;DHT22;14472;56.880;16.658;2023-06-22T02:58:55;19.10;52.60
26907;DHT22;14472;56.880;16.658;2023-06-22T03:01:26;19.10;49.40
26907;DHT22;14472;56.880;16.658;2023-06-22T03:03:53;19.00;50.20
26907;DHT22;14472;56.880;16.658;2023-06-22T03:06:20;19.10;52.60
26907;DHT22;14472;56.880;16.658;2023-06-22T03:08:52;19.10;58.70
26907;DHT22;14472;56.880;16.658;2023-06-22T03:11:18;19.00;60.20
26907;DHT22;14472;56.880;16.658;2023-06-22T03:13:43;19.00;60.20
26907;DHT22;14472;56.880;16.658;2023-06-22T03:16:11;19.00;65.70
26907;DHT22;14472;56.880;16.658;2023-06-22T03:18:37;19.00;64.30
26907;DHT22;14472;56.880;16.658;2023-06-22T03:21:03;19.00;64.90
26907;DHT22;14472;56.880;16.658;2023-06-22T03:23:29;19.00;65.70
26907;DHT22;14472;56.880;16.658;2023-06-22T03:25:54;19.00;68.10
26907;DHT22;14472;56.880;16.658;2023-06-22T03:28:21;19.00;69.30
26907;DHT22;14472;56.880;16.658;2023-06-22T03:30:47;19.00;74.40
26907;DHT22;14472;56.880;16.658;2023-06-22T03:33:13;19.00;75.50
26907;DHT22;14472;56.880;16.658;2023-06-22T03:35:38;19.00;72.80
26907;DHT22;14472;56.880;16.658;2023-06-22T03:38:04;19.00;72.80
26907;DHT22;14472;56.880;16.658;2023-06-22T03:40:30;19.00;73.90
26907;DHT22;14472;56.880;16.658;2023-06-22T03:42:56;19.00;75.90
26907;DHT22;14472;56.880;16.658;2023-06-22T03:45:22;19.00;76.50
26907;DHT22;14472;56.880;16.658;2023-06-22T03:47:47;19.00;67.70
26907;DHT22;14472;56.880;16.658;2023-06-22T03:50:13;19.00;61.50
26907;DHT22;14472;56.880;16.658;2023-06-22T03:52:40;19.00;56.60
26907;DHT22;14472;56.880;16.658;2023-06-22T03:55:07;18.90;58.60
26907;DHT22;14472;56.880;16.658;2023-06-22T03:57:33;19.00;58.70
26907;DHT22;14472;56.880;16.658;2023-06-22T03:59:58;19.00;58.70
26907;DHT22;14472;56.880;16.658;2023-06-22T04:02:24;19.00;65.70
26907;DHT22;14472;56.880;16.658;2023-06-22T04:04:50;19.00;65.60
26907;DHT22;14472;56.880;16.658;2023-06-22T04:07:16;19.00;62.70
26907;DHT22;14472;56.880;16.658;2023-06-22T04:09:43;19.00;70.00
26907;DHT22;14472;56.880;16.658;2023-06-22T04:12:09;19.10;74.20
26907;DHT22;14472;56.880;16.658;2023-06-22T04:14:35;19.10;68.90
26907;DHT22;14472;56.880;16.658;2023-06-22T04:17:01;19.10;69.90
26907;DHT22;14472;56.880;16.658;2023-06-22T04:19:27;19.10;60.60
26907;DHT22;14472;56.880;16.658;2023-06-22T04:21:52;19.10;52.10
26907;DHT22;14472;56.880;16.658;2023-06-22T04:24:18;19.10;52.50
26907;DHT22;14472;56.880;16.658;2023-06-22T04:26:44;19.10;52.00
26907;DHT22;14472;56.880;16.658;2023-06-22T04:29:12;19.20;52.70
26907;DHT22;14472;56.880;16.658;2023-06-22T04:31:38;19.20;53.40
26907;DHT22;14472;56.880;16.658;2023-06-22T04:34:05;19.20;55.50
26907;DHT22;14472;56.880;16.658;2023-06-22T04:36:40;19.20;52.60
26907;DHT22;14472;56.880;16.658;2023-06-22T04:39:11;19.20;46.40
26907;DHT22;14472;56.880;16.658;2023-06-22T04:41:38;19.20;40.60
26907;DHT22;14472;56.880;16.658;2023-06-22T04:44:14;19.20;41.80
26907;DHT22;14472;56.880;16.658;2023-06-22T04:46:58;19.30;38.00
26907;DHT22;14472;56.880;16.658;2023-06-22T04:49:30;19.20;37.10
26907;DHT22;14472;56.880;16.658;2023-06-22T04:52:00;19.40;42.00
26907;DHT22;14472;56.880;16.658;2023-06-22T04:54:27;19.30;41.90
26907;DHT22;14472;56.880;16.658;2023-06-22T04:56:52;19.40;39.00
26907;DHT22;14472;56.880;16.658;2023-06-22T04:59:25;19.40;34.80
26907;DHT22;14472;56.880;16.658;2023-06-22T05:02:00;19.40;34.60
26907;DHT22;14472;56.880;16.658;2023-06-22T05:04:27;19.40;36.80
26907;DHT22;14472;56.880;16.658;2023-06-22T05:06:55;19.40;37.40
26907;DHT22;14472;56.880;16.658;2023-06-22T05:09:21;19.40;29.90
26907;DHT22;14472;56.880;16.658;2023-06-22T05:11:47;19.40;27.80
26907;DHT22;14472;56.880;16.658;2023-06-22T05:14:13;19.50;29.70
26907;DHT22;14472;56.880;16.658;2023-06-22T05:16:41;19.50;27.00
26907;DHT22;14472;56.880;16.658;2023-06-22T05:19:07;19.50;26.10
26907;DHT22;14472;56.880;16.658;2023-06-22T05:21:33;19.50;24.80
26907;DHT22;14472;56.880;16.658;2023-06-22T05:23:59;19.60;25.30
26907;DHT22;14472;56.880;16.658;2023-06-22T05:26:33;19.50;22.60
26907;DHT22;14472;56.880;16.658;2023-06-22T05:29:00;19.60;25.10
26907;DHT22;14472;56.880;16.658;2023-06-22T05:31:26;19.60;22.70
26907;DHT22;14472;56.880;16.658;2023-06-22T05:33:53;19.60;22.70
26907;DHT22;14472;56.880;16.658;2023-06-22T05:36:20;19.70;22.80
26907;DHT22;14472;56.880;16.658;2023-06-22T05:38:47;19.70;24.20
26907;DHT22;14472;56.880;16.658;2023-06-22T05:41:13;19.80;22.80
26907;DHT22;14472;56.880;16.658;2023-06-22T05:43:40;19.80;19.80
26907;DHT22;14472;56.880;16.658;2023-06-22T05:46:05;19.80;18.00
26907;DHT22;14472;56.880;16.658;2023-06-22T05:48:31;19.80;12.00
26907;DHT22;14472;56.880;16.658;2023-06-22T05:50:58;19.90;9.70
26907;DHT22;14472;56.880;16.658;2023-06-22T05:53:24;20.00;12.90
26907;DHT22;14472;56.880;16.658;2023-06-22T05:55:50;20.00;14.10
26907;DHT22;14472;56.880;16.658;2023-06-22T05:58:16;20.00;10.70
26907;DHT22;14472;56.880;16.658;2023-06-22T06:00:42;20.10;4.10
26907;DHT22;14472;56.880;16.658;2023-06-22T06:03:09;20.10;1.00
26907;DHT22;14472;56.880;16.658;2023-06-22T06:05:36;20.20;1.00
26907;DHT22;14472;56.880;16.658;2023-06-22T06:08:04;20.20;1.00
26907;DHT22;14472;56.880;16.658;2023-06-22T06:10:31;20.20;1.00
26907;DHT22;14472;56.880;16.658;2023-06-22T06:12:57;20.20;1.00
26907;DHT22;14472;56.880;16.658;2023-06-22T06:15:23;20.30;1.00
26907;DHT22;14472;56.880;16.658;2023-06-22T06:17:50;20.30;1.00
26907;DHT22;14472;56.880;16.658;2023-06-22T06:20:19;20.40;1.00
26907;DHT22;14472;56.880;16.658;2023-06-22T06:22:45;20.40;1.00
26907;DHT22;14472;56.880;16.658;2023-06-22T06:25:10;20.50;1.00
26907;DHT22;14472;56.880;16.658;2023-06-22T06:27:42;20.50;1.00
26907;DHT22;14472;56.880;16.658;2023-06-22T06:30:08;20.60;1.00
26907;DHT22;14472;56.880;16.658;2023-06-22T06:32:34;20.60;1.00
26907;DHT22;14472;56.880;16.658;2023-06-22T06:34:59;20.70;1.00
26907;DHT22;14472;56.880;16.658;2023-06-22T06:37:25;20.80;1.00
26907;DHT22;14472;56.880;16.658;2023-06-22T06:39:51;20.80;1.00
26907;DHT22;14472;56.880;16.658;2023-06-22T06:42:17;20.80;1.00
26907;DHT22;14472;56.880;16.658;2023-06-22T06:44:44;20.90;1.00
26907;DHT22;14472;56.880;16.658;2023-06-22T06:47:10;20.90;1.00
26907;DHT22;14472;56.880;16.658;2023-06-22T06:49:36;21.00;1.00
26907;DHT22;14472;56.880;16.658;2023-06-22T06:52:02;21.00;1.00
26907;DHT22;14472;56.880;16.658;2023-06-22T06:54:28;21.10;1.00
26907;DHT22;14472;56.880;16.658;2023-06-22T06:56:56;21.10;1.00
26907;DHT22;14472;56.880;16.658;2023-06-22T06:59:22;21.10;1.00
26907;DHT22;14472;56.880;16.658;2023-06-22T07:01:48;21.20;1.00
26907;DHT22;14472;56.880;16.658;2023-06-22T07:04:14;21.30;1.00
26907;DHT22;14472;56.880;16.658;2023-06-22T07:06:40;21.30;1.00
26907;DHT22;14472;56.880;16.658;2023-06-22T07:09:05;21.40;1.00
26907;DHT22;14472;56.880;16.658;2023-06-22T07:11:32;21.50;1.00
26907;DHT22;14472;56.880;16.658;2023-06-22T07:13:58;21.50;1.00
26907;DHT22;14472;56.880;16.658;2023-06-22T07:16:26;21.50;1.00
26907;DHT22;14472;56.880;16.658;2023-06-22T07:18:53;21.50;1.00
26907;DHT22;14472;56.880;16.658;2023-06-22T07:21:19;21.60;1.00
26907;DHT22;14472;56.880;16.658;2023-06-22T07:23:44;21.60;1.00
26907;DHT22;14472;56.880;16.658;2023-06-22T07:26:10;21.70;1.00
26907;DHT22;14472;56.880;16.658;2023-06-22T07:28:38;21.80;1.00
26907;DHT22;14472;56.880;16.658;2023-06-22T07:31:06;21.80;1.00
26907;DHT22;14472;56.880;16.658;2023-06-22T07:33:32;21.90;1.00
26907;DHT22;14472;56.880;16.658;2023-06-22T07:35:58;21.90;1.00
26907;DHT22;14472;56.880;16.658;2023-06-22T07:38:23;22.00;1.00
26907;DHT22;14472;56.880;16.658;2023-06-22T07:40:49;21.90;1.00
26907;DHT22;14472;56.880;16.658;2023-06-22T07:43:16;22.00;1.00
26907;DHT22;14472;56.880;16.658;2023-06-22T07:45:48;22.10;1.00
26907;DHT22;14472;56.880;16.658;2023-06-22T07:48:19;22.20;1.00
26907;DHT22;14472;56.880;16.658;2023-06-22T07:50:45;22.20;1.00
26907;DHT22;14472;56.880;16.658;2023-06-22T07:53:11;22.30;1.00
26907;DHT22;14472;56.880;16.658;2023-06-22T07:55:36;22.30;1.00
26907;DHT22;14472;56.880;16.658;2023-06-22T07:58:02;22.30;1.00
26907;DHT22;14472;56.880;16.658;2023-06-22T08:00:28;22.40;1.00
26907;DHT22;14472;56.880;16.658;2023-06-22T08:02:54;22.40;1.00
26907;DHT22;14472;56.880;16.658;2023-06-22T08:05:19;22.40;1.00
26907;DHT22;14472;56.880;16.658;2023-06-22T08:07:45;22.50;1.00
26907;DHT22;14472;56.880;16.658;2023-06-22T08:10:12;22.40;1.00
26907;DHT22;14472;56.880;16.658;2023-06-22T08:12:39;22.50;1.00
26907;DHT22;14472;56.880;16.658;2023-06-22T08:15:05;22.60;1.00
26907;DHT22;14472;56.880;16.658;2023-06-22T08:17:31;22.60;1.00
26907;DHT22;14472;56.880;16.658;2023-06-22T08:19:57;22.60;1.00
26907;DHT22;14472;56.880;16.658;2023-06-22T08:22:23;22.70;1.00
26907;DHT22;14472;56.880;16.658;2023-06-22T08:24:48;22.80;1.00
26907;DHT22;14472;56.880;16.658;2023-06-22T08:27:14;22.80;1.00
26907;DHT22;14472;56.880;16.658;2023-06-22T08:29:42;22.80;1.00
26907;DHT22;14472;56.880;16.658;2023-06-22T08:32:09;22.80;1.00
26907;DHT22;14472;56.880;16.658;2023-06-22T08:34:36;23.00;1.00
26907;DHT22;14472;56.880;16.658;2023-06-22T08:37:01;23.00;1.00
26907;DHT22;14472;56.880;16.658;2023-06-22T08:39:32;23.10;1.00
26907;DHT22;14472;56.880;16.658;2023-06-22T08:41:57;23.10;1.00
26907;DHT22;14472;56.880;16.658;2023-06-22T08:44:23;23.20;1.00
26907;DHT22;14472;56.880;16.658;2023-06-22T08:46:49;23.20;1.00
26907;DHT22;14472;56.880;16.658;2023-06-22T08:49:14;23.30;1.00
26907;DHT22;14472;56.880;16.658;2023-06-22T08:51:40;23.40;1.00
26907;DHT22;14472;56.880;16.658;2023-06-22T08:54:06;23.50;1.00
26907;DHT22;14472;56.880;16.658;2023-06-22T08:56:32;23.50;1.00
26907;DHT22;14472;56.880;16.658;2023-06-22T08:58:58;23.70;1.00
26907;DHT22;14472;56.880;16.658;2023-06-22T09:01:24;23.70;1.00
26907;DHT22;14472;56.880;16.658;2023-06-22T09:03:49;23.70;1.00
26907;DHT22;14472;56.880;16.658;2023-06-22T09:06:20;23.80;1.00
26907;DHT22;14472;56.880;16.658;2023-06-22T09:08:47;23.90;1.00
26907;DHT22;14472;56.880;16.658;2023-06-22T09:11:13;23.90;1.00
26907;DHT22;14472;56.880;16.658;2023-06-22T09:13:39;24.00;1.00
26907;DHT22;14472;56.880;16.658;2023-06-22T09:16:05;24.10;1.00
26907;DHT22;14472;56.880;16.658;2023-06-22T09:18:30;24.10;1.00
26907;DHT22;14472;56.880;16.658;2023-06-22T09:20:56;24.20;1.00
26907;DHT22;14472;56.880;16.658;2023-06-22T09:23:22;24.30;1.00
26907;DHT22;14472;56.880;16.658;2023-06-22T09:25:48;24.30;1.00
26907;DHT22;14472;56.880;16.658;2023-06-22T09:28:14;24.40;1.00
26907;DHT22;14472;56.880;16.658;2023-06-22T09:30:40;24.40;1.00
26907;DHT22;14472;56.880;16.658;2023-06-22T09:33:06;24.40;1.00
26907;DHT22;14472;56.880;16.658;2023-06-22T09:35:31;24.50;1.00
26907;DHT22;14472;56.880;16.658;2023-06-22T09:37:57;24.60;1.00
26907;DHT22;14472;56.880;16.658;2023-06-22T09:40:23;24.60;1.00
26907;DHT22;14472;56.880;16.658;2023-06-22T09:42:49;24.60;1.00
26907;DHT22;14472;56.880;16.658;2023-06-22T09:45:15;24.60;1.00
26907;DHT22;14472;56.880;16.658;2023-06-22T09:47:40;24.60;1.00
26907;DHT22;14472;56.880;16.658;2023-06-22T09:50:07;24.70;1.00
26907;DHT22;14472;56.880;16.658;2023-06-22T09:52:33;24.70;1.00
26907;DHT22;14472;56.880;16.658;2023-06-22T09:54:59;24.70;1.00
26907;DHT22;14472;56.880;16.658;2023-06-22T09:57:24;24.70;1.00
26907;DHT22;14472;56.880;16.658;2023-06-22T09:59:50;24.70;1.00
26907;DHT22;14472;56.880;16.658;2023-06-22T10:02:16;24.80;1.00
26907;DHT22;14472;56.880;16.658;2023-06-22T10:04:42;24.90;1.00
26907;DHT22;14472;56.880;16.658;2023-06-22T10:07:08;24.90;1.00
26907;DHT22;14472;56.880;16.658;2023-06-22T10:09:34;24.90;1.00
26907;DHT22;14472;56.880;16.658;2023-06-22T10:11:59;25.00;1.00
26907;DHT22;14472;56.880;16.658;2023-06-22T10:14:25;25.00;1.00
26907;DHT22;14472;56.880;16.658;2023-06-22T10:16:52;25.10;1.00
26907;DHT22;14472;56.880;16.658;2023-06-22T10:19:18;25.10;1.00
26907;DHT22;14472;56.880;16.658;2023-06-22T10:21:44;25.20;1.00
26907;DHT22;14472;56.880;16.658;2023-06-22T10:24:10;25.20;1.00
26907;DHT22;14472;56.880;16.658;2023-06-22T10:26:36;25.30;1.00
26907;DHT22;14472;56.880;16.658;2023-06-22T10:29:02;25.30;1.00
26907;DHT22;14472;56.880;16.658;2023-06-22T10:31:28;25.40;1.00
26907;DHT22;14472;56.880;16.658;2023-06-22T10:33:55;25.40;1.00
26907;DHT22;14472;56.880;16.658;2023-06-22T10:36:21;25.50;1.00
26907;DHT22;14472;56.880;16.658;2023-06-22T10:38:48;25.50;1.00
26907;DHT22;14472;56.880;16.658;2023-06-22T10:41:14;25.60;1.00
26907;DHT22;14472;56.880;16.658;2023-06-22T10:43:40;25.50;1.00
26907;DHT22;14472;56.880;16.658;2023-06-22T10:46:07;25.70;1.00
26907;DHT22;14472;56.880;16.658;2023-06-22T10:48:33;25.70;1.00
26907;DHT22;14472;56.880;16.658;2023-06-22T10:50:58;25.70;1.00
26907;DHT22;14472;56.880;16.658;2023-06-22T10:53:24;25.80;1.00
26907;DHT22;14472;56.880;16.658;2023-06-22T10:55:50;25.80;1.00
26907;DHT22;14472;56.880;16.658;2023-06-22T10:58:18;25.70;1.00
26907;DHT22;14472;56.880;16.658;2023-06-22T11:00:44;25.80;1.00
26907;DHT22;14472;56.880;16.658;2023-06-22T11:03:10;25.80;1.00
26907;DHT22;14472;56.880;16.658;2023-06-22T11:05:36;25.90;1.00
26907;DHT22;14472;56.880;16.658;2023-06-22T11:08:02;26.00;1.00
26907;DHT22;14472;56.880;16.658;2023-06-22T11:10:27;26.10;1.00
26907;DHT22;14472;56.880;16.658;2023-06-22T11:12:53;26.10;1.00
26907;DHT22;14472;56.880;16.658;2023-06-22T11:15:20;26.10;1.00
26907;DHT22;14472;56.880;16.658;2023-06-22T11:17:46;26.10;1.00
26907;DHT22;14472;56.880;16.658;2023-06-22T11:23:22;26.30;1.00
26907;DHT22;14472;56.880;16.658;2023-06-22T11:25:48;26.40;1.00
26907;DHT22;14472;56.880;16.658;2023-06-22T11:28:14;26.40;1.00
26907;DHT22;14472;56.880;16.658;2023-06-22T11:30:40;26.40;1.00
26907;DHT22;14472;56.880;16.658;2023-06-22T11:33:05;26.50;1.00
26907;DHT22;14472;56.880;16.658;2023-06-22T11:35:31;26.40;1.00
26907;DHT22;14472;56.880;16.658;2023-06-22T11:37:57;26.40;1.00
26907;DHT22;14472;56.880;16.658;2023-06-22T11:40:26;26.40;1.00
26907;DHT22;14472;56.880;16.658;2023-06-22T11:42:52;26.40;1.00
26907;DHT22;14472;56.880;16.658;2023-06-22T11:45:18;26.40;1.00
26907;DHT22;14472;56.880;16.658;2023-06-22T11:47:44;26.50;1.00
26907;DHT22;14472;56.880;16.658;2023-06-22T11:50:10;26.50;1.00
26907;DHT22;14472;56.880;16.658;2023-06-22T11:52:36;26.40;1.00
26907;DHT22;14472;56.880;16.658;2023-06-22T11:55:02;26.40;1.00
26907;DHT22;14472;56.880;16.658;2023-06-22T11:57:29;26.50;1.00
26907;DHT22;14472;56.880;16.658;2023-06-22T11:59:55;26.50;1.00
26907;DHT22;14472;56.880;16.658;2023-06-22T12:02:21;26.50;1.00
26907;DHT22;14472;56.880;16.658;2023-06-22T12:04:46;26.50;1.00
26907;DHT22;14472;56.880;16.658;2023-06-22T12:07:12;26.50;1.00
26907;DHT22;14472;56.880;16.658;2023-06-22T12:10:13;26.60;1.00
26907;DHT22;14472;56.880;16.658;2023-06-22T12:12:39;26.70;1.00
26907;DHT22;14472;56.880;16.658;2023-06-22T12:15:05;26.80;1.00
26907;DHT22;14472;56.880;16.658;2023-06-22T12:17:31;26.80;1.00
26907;DHT22;14472;56.880;16.658;2023-06-22T12:19:57;26.80;1.00
26907;DHT22;14472;56.880;16.658;2023-06-22T12:22:22;26.80;1.00
26907;DHT22;14472;56.880;16.658;2023-06-22T12:24:48;26.70;1.00
26907;DHT22;14472;56.880;16.658;2023-06-22T12:27:16;26.70;1.00
26907;DHT22;14472;56.880;16.658;2023-06-22T12:29:45;26.70;1.00
26907;DHT22;14472;56.880;16.658;2023-06-22T12:32:11;26.70;1.00
26907;DHT22;14472;56.880;16.658;2023-06-22T12:34:39;26.70;1.00
26907;DHT22;14472;56.880;16.658;2023-06-22T12:37:05;26.60;1.00
26907;DHT22;14472;56.880;16.658;2023-06-22T12:39:32;26.60;1.00
26907;DHT22;14472;56.880;16.658;2023-06-22T12:41:57;26.60;1.00
26907;DHT22;14472;56.880;16.658;2023-06-22T12:44:23;26.70;1.00
26907;DHT22;14472;56.880;16.658;2023-06-22T12:46:49;26.80;1.00
26907;DHT22;14472;56.880;16.658;2023-06-22T12:49:15;26.90;1.00
26907;DHT22;14472;56.880;16.658;2023-06-22T12:51:41;26.90;1.00
26907;DHT22;14472;56.880;16.658;2023-06-22T12:54:10;27.00;1.00
26907;DHT22;14472;56.880;16.658;2023-06-22T12:56:39;27.10;1.00
26907;DHT22;14472;56.880;16.658;2023-06-22T12:59:05;27.10;1.00
26907;DHT22;14472;56.880;16.658;2023-06-22T13:01:32;27.10;1.00
26907;DHT22;14472;56.880;16.658;2023-06-22T13:04:01;27.10;1.00
26907;DHT22;14472;56.880;16.658;2023-06-22T13:06:26;27.10;1.00
26907;DHT22;14472;56.880;16.658;2023-06-22T13:08:52;27.10;1.00
26907;DHT22;14472;56.880;16.658;2023-06-22T13:11:18;27.10;1.00
26907;DHT22;14472;56.880;16.658;2023-06-22T13:13:45;27.10;1.00
26907;DHT22;14472;56.880;16.658;2023-06-22T13:16:11;27.10;1.00
26907;DHT22;14472;56.880;16.658;2023-06-22T13:18:37;27.10;1.00
26907;DHT22;14472;56.880;16.658;2023-06-22T13:21:03;27.20;1.00
26907;DHT22;14472;56.880;16.658;2023-06-22T13:23:29;27.20;1.00
26907;DHT22;14472;56.880;16.658;2023-06-22T13:25:55;27.20;1.00
26907;DHT22;14472;56.880;16.658;2023-06-22T13:28:21;27.20;1.00
26907;DHT22;14472;56.880;16.658;2023-06-22T13:30:47;27.30;1.00
26907;DHT22;14472;56.880;16.658;2023-06-22T13:33:13;27.20;1.00
26907;DHT22;14472;56.880;16.658;2023-06-22T13:35:39;27.20;1.00
26907;DHT22;14472;56.880;16.658;2023-06-22T13:38:08;27.30;1.00
26907;DHT22;14472;56.880;16.658;2023-06-22T13:40:34;27.30;1.00
26907;DHT22;14472;56.880;16.658;2023-06-22T13:43:00;27.30;1.00
26907;DHT22;14472;56.880;16.658;2023-06-22T13:45:26;27.30;1.00
26907;DHT22;14472;56.880;16.658;2023-06-22T13:47:52;27.30;1.00
26907;DHT22;14472;56.880;16.658;2023-06-22T13:50:18;27.30;1.00
26907;DHT22;14472;56.880;16.658;2023-06-22T13:52:43;27.30;1.00
26907;DHT22;14472;56.880;16.658;2023-06-22T13:55:09;27.20;1.00
26907;DHT22;14472;56.880;16.658;2023-06-22T13:57:35;27.20;1.00
26907;DHT22;14472;56.880;16.658;2023-06-22T14:00:04;27.30;1.00
26907;DHT22;14472;56.880;16.658;2023-06-22T14:02:33;27.40;1.00
26907;DHT22;14472;56.880;16.658;2023-06-22T14:04:59;27.40;1.00
26907;DHT22;14472;56.880;16.658;2023-06-22T14:07:25;27.50;1.00
26907;DHT22;14472;56.880;16.658;2023-06-22T14:09:51;27.50;1.00
26907;DHT22;14472;56.880;16.658;2023-06-22T14:12:17;27.50;1.00
26907;DHT22;14472;56.880;16.658;2023-06-22T14:14:46;27.50;1.00
26907;DHT22;14472;56.880;16.658;2023-06-22T14:17:11;27.60;1.00
26907;DHT22;14472;56.880;16.658;2023-06-22T14:19:37;27.60;1.00
26907;DHT22;14472;56.880;16.658;2023-06-22T14:22:03;27.60;1.00
26907;DHT22;14472;56.880;16.658;2023-06-22T14:24:29;27.60;1.00
26907;DHT22;14472;56.880;16.658;2023-06-22T14:26:55;27.50;1.00
26907;DHT22;14472;56.880;16.658;2023-06-22T14:29:22;27.60;1.00
26907;DHT22;14472;56.880;16.658;2023-06-22T14:31:48;27.60;1.00
26907;DHT22;14472;56.880;16.658;2023-06-22T14:34:15;27.50;1.00
26907;DHT22;14472;56.880;16.658;2023-06-22T14:36:42;27.50;1.00
26907;DHT22;14472;56.880;16.658;2023-06-22T14:39:08;27.40;1.00
26907;DHT22;14472;56.880;16.658;2023-06-22T14:41:34;27.40;1.00
26907;DHT22;14472;56.880;16.658;2023-06-22T14:43:59;27.40;1.00
26907;DHT22;14472;56.880;16.658;2023-06-22T14:46:25;27.40;1.00
26907;DHT22;14472;56.880;16.658;2023-06-22T14:48:51;27.40;1.00
26907;DHT22;14472;56.880;16.658;2023-06-22T14:51:17;27.40;1.00
26907;DHT22;14472;56.880;16.658;2023-06-22T14:53:44;27.30;1.00
26907;DHT22;14472;56.880;16.658;2023-06-22T14:56:10;27.30;1.00
26907;DHT22;14472;56.880;16.658;2023-06-22T14:58:35;27.30;1.00
26907;DHT22;14472;56.880;16.658;2023-06-22T15:01:02;27.20;1.00
26907;DHT22;14472;56.880;16.658;2023-06-22T15:03:29;27.10;1.00
26907;DHT22;14472;56.880;16.658;2023-06-22T15:05:57;27.10;1.00
26907;DHT22;14472;56.880;16.658;2023-06-22T15:08:24;27.10;1.00
26907;DHT22;14472;56.880;16.658;2023-06-22T15:10:51;27.20;1.00
26907;DHT22;14472;56.880;16.658;2023-06-22T15:13:17;27.10;1.00
26907;DHT22;14472;56.880;16.658;2023-06-22T15:15:46;27.10;1.00
26907;DHT22;14472;56.880;16.658;2023-06-22T15:18:13;27.00;1.00
26907;DHT22;14472;56.880;16.658;2023-06-22T15:20:39;27.00;1.00
26907;DHT22;14472;56.880;16.658;2023-06-22T15:23:06;27.10;1.00
26907;DHT22;14472;56.880;16.658;2023-06-22T15:25:32;27.10;1.00
26907;DHT22;14472;56.880;16.658;2023-06-22T15:27:58;27.00;1.00